sensor_id;sensor_type;location;lat;lon;timestamp;P1;durP1;ratioP1;P2;durP2;ratioP2
50745;SDS011;36711;51.972;21.204;2023-03-19T00:00:32;14.50;;;7.50;;
50745;SDS011;36711;51.972;21.204;2023-03-19T00:03:38;17.20;;;7.50;;
50745;SDS011;36711;51.972;21.204;2023-03-19T00:06:06;16.10;;;8.30;;
50745;SDS011;36711;51.972;21.204;2023-03-19T00:08:35;17.80;;;8.20;;
50745;SDS011;36711;51.972;21.204;2023-03-19T00:11:08;20.60;;;9.20;;
50745;SDS011;36711;51.972;21.204;2023-03-19T00:13:39;18.50;;;8.50;;
50745;SDS011;36711;51.972;21.204;2023-03-19T00:16:08;18.10;;;8.30;;
50745;SDS011;36711;51.972;21.204;2023-03-19T00:18:37;15.70;;;8.00;;
50745;SDS011;36711;51.972;21.204;2023-03-19T00:21:05;15.20;;;8.00;;
50745;SDS011;36711;51.972;21.204;2023-03-19T00:23:34;17.50;;;8.20;;
50745;SDS011;36711;51.972;21.204;2023-03-19T00:26:04;16.50;;;8.10;;
50745;SDS011;36711;51.972;21.204;2023-03-19T00:28:33;18.70;;;8.00;;
50745;SDS011;36711;51.972;21.204;2023-03-19T00:31:10;19.00;;;8.40;;
50745;SDS011;36711;51.972;21.204;2023-03-19T00:33:40;19.10;;;8.10;;
50745;SDS011;36711;51.972;21.204;2023-03-19T00:36:10;17.00;;;7.70;;
50745;SDS011;36711;51.972;21.204;2023-03-19T00:38:39;14.60;;;7.70;;
50745;SDS011;36711;51.972;21.204;2023-03-19T00:41:08;14.60;;;7.30;;
50745;SDS011;36711;51.972;21.204;2023-03-19T00:43:37;16.10;;;7.70;;
50745;SDS011;36711;51.972;21.204;2023-03-19T00:46:06;14.60;;;7.50;;
50745;SDS011;36711;51.972;21.204;2023-03-19T00:48:35;17.80;;;8.40;;
50745;SDS011;36711;51.972;21.204;2023-03-19T00:51:04;17.70;;;8.30;;
50745;SDS011;36711;51.972;21.204;2023-03-19T00:53:38;18.40;;;7.90;;
50745;SDS011;36711;51.972;21.204;2023-03-19T00:56:07;15.80;;;8.20;;
50745;SDS011;36711;51.972;21.204;2023-03-19T00:58:37;18.00;;;8.30;;
50745;SDS011;36711;51.972;21.204;2023-03-19T01:01:07;17.20;;;8.40;;
50745;SDS011;36711;51.972;21.204;2023-03-19T01:03:36;15.90;;;8.10;;
50745;SDS011;36711;51.972;21.204;2023-03-19T01:06:05;14.50;;;7.70;;
50745;SDS011;36711;51.972;21.204;2023-03-19T01:08:34;19.70;;;8.30;;
50745;SDS011;36711;51.972;21.204;2023-03-19T01:11:07;18.80;;;8.30;;
50745;SDS011;36711;51.972;21.204;2023-03-19T01:16:06;17.90;;;7.40;;
50745;SDS011;36711;51.972;21.204;2023-03-19T01:18:35;21.80;;;8.00;;
50745;SDS011;36711;51.972;21.204;2023-03-19T01:21:04;18.40;;;8.50;;
50745;SDS011;36711;51.972;21.204;2023-03-19T01:23:33;18.90;;;8.80;;
50745;SDS011;36711;51.972;21.204;2023-03-19T01:26:02;15.30;;;8.20;;
50745;SDS011;36711;51.972;21.204;2023-03-19T01:28:32;20.30;;;8.70;;
50745;SDS011;36711;51.972;21.204;2023-03-19T01:31:01;15.60;;;7.90;;
50745;SDS011;36711;51.972;21.204;2023-03-19T01:33:33;14.70;;;7.90;;
50745;SDS011;36711;51.972;21.204;2023-03-19T01:36:02;18.20;;;8.70;;
50745;SDS011;36711;51.972;21.204;2023-03-19T01:38:32;18.90;;;8.60;;
50745;SDS011;36711;51.972;21.204;2023-03-19T01:41:01;15.30;;;8.20;;
50745;SDS011;36711;51.972;21.204;2023-03-19T01:43:30;16.00;;;8.00;;
50745;SDS011;36711;51.972;21.204;2023-03-19T01:46:00;25.70;;;8.70;;
50745;SDS011;36711;51.972;21.204;2023-03-19T01:48:52;16.40;;;8.30;;
50745;SDS011;36711;51.972;21.204;2023-03-19T01:51:21;19.30;;;8.50;;
50745;SDS011;36711;51.972;21.204;2023-03-19T01:53:52;15.90;;;8.00;;
50745;SDS011;36711;51.972;21.204;2023-03-19T01:56:23;16.00;;;8.00;;
50745;SDS011;36711;51.972;21.204;2023-03-19T01:58:55;16.40;;;8.50;;
50745;SDS011;36711;51.972;21.204;2023-03-19T02:01:24;18.00;;;8.10;;
50745;SDS011;36711;51.972;21.204;2023-03-19T02:03:54;15.90;;;7.90;;
50745;SDS011;36711;51.972;21.204;2023-03-19T02:06:24;14.80;;;8.00;;
50745;SDS011;36711;51.972;21.204;2023-03-19T02:08:52;16.80;;;7.70;;
50745;SDS011;36711;51.972;21.204;2023-03-19T02:11:22;19.30;;;8.40;;
50745;SDS011;36711;51.972;21.204;2023-03-19T02:13:51;16.00;;;7.40;;
50745;SDS011;36711;51.972;21.204;2023-03-19T02:16:20;18.50;;;7.90;;
50745;SDS011;36711;51.972;21.204;2023-03-19T02:18:49;16.00;;;8.00;;
50745;SDS011;36711;51.972;21.204;2023-03-19T02:21:18;18.10;;;8.20;;
50745;SDS011;36711;51.972;21.204;2023-03-19T02:26:22;14.90;;;7.60;;
50745;SDS011;36711;51.972;21.204;2023-03-19T02:28:51;16.70;;;8.30;;
50745;SDS011;36711;51.972;21.204;2023-03-19T02:31:21;19.10;;;8.00;;
50745;SDS011;36711;51.972;21.204;2023-03-19T02:36:32;22.00;;;7.90;;
50745;SDS011;36711;51.972;21.204;2023-03-19T02:39:03;18.80;;;7.70;;
50745;SDS011;36711;51.972;21.204;2023-03-19T02:41:32;19.20;;;8.10;;
50745;SDS011;36711;51.972;21.204;2023-03-19T02:44:02;16.50;;;8.30;;
50745;SDS011;36711;51.972;21.204;2023-03-19T02:46:32;20.30;;;8.60;;
50745;SDS011;36711;51.972;21.204;2023-03-19T02:49:00;13.70;;;7.70;;
50745;SDS011;36711;51.972;21.204;2023-03-19T02:51:30;19.00;;;7.70;;
50745;SDS011;36711;51.972;21.204;2023-03-19T02:53:58;17.70;;;8.70;;
50745;SDS011;36711;51.972;21.204;2023-03-19T02:56:28;16.10;;;8.20;;
50745;SDS011;36711;51.972;21.204;2023-03-19T02:58:57;19.00;;;8.50;;
50745;SDS011;36711;51.972;21.204;2023-03-19T03:01:26;19.40;;;8.90;;
50745;SDS011;36711;51.972;21.204;2023-03-19T03:03:56;18.80;;;8.70;;
50745;SDS011;36711;51.972;21.204;2023-03-19T03:06:24;17.50;;;8.30;;
50745;SDS011;36711;51.972;21.204;2023-03-19T03:08:53;19.10;;;8.50;;
50745;SDS011;36711;51.972;21.204;2023-03-19T03:11:22;20.50;;;8.20;;
50745;SDS011;36711;51.972;21.204;2023-03-19T03:13:51;15.90;;;8.30;;
50745;SDS011;36711;51.972;21.204;2023-03-19T03:16:20;18.10;;;8.50;;
50745;SDS011;36711;51.972;21.204;2023-03-19T03:18:50;17.20;;;8.60;;
50745;SDS011;36711;51.972;21.204;2023-03-19T03:21:19;19.70;;;8.10;;
50745;SDS011;36711;51.972;21.204;2023-03-19T03:23:49;18.60;;;8.40;;
50745;SDS011;36711;51.972;21.204;2023-03-19T03:26:18;20.20;;;8.60;;
50745;SDS011;36711;51.972;21.204;2023-03-19T03:28:48;19.10;;;9.10;;
50745;SDS011;36711;51.972;21.204;2023-03-19T03:31:17;16.70;;;8.10;;
50745;SDS011;36711;51.972;21.204;2023-03-19T03:33:46;22.10;;;9.70;;
50745;SDS011;36711;51.972;21.204;2023-03-19T03:36:15;18.20;;;9.10;;
50745;SDS011;36711;51.972;21.204;2023-03-19T03:38:45;19.20;;;9.40;;
50745;SDS011;36711;51.972;21.204;2023-03-19T03:41:13;21.20;;;9.30;;
50745;SDS011;36711;51.972;21.204;2023-03-19T03:43:42;20.80;;;10.00;;
50745;SDS011;36711;51.972;21.204;2023-03-19T03:46:12;22.30;;;9.20;;
50745;SDS011;36711;51.972;21.204;2023-03-19T03:48:41;20.70;;;9.40;;
50745;SDS011;36711;51.972;21.204;2023-03-19T03:51:10;18.60;;;9.00;;
50745;SDS011;36711;51.972;21.204;2023-03-19T03:53:39;17.90;;;9.20;;
50745;SDS011;36711;51.972;21.204;2023-03-19T03:56:08;23.40;;;9.40;;
50745;SDS011;36711;51.972;21.204;2023-03-19T03:58:37;19.30;;;9.10;;
50745;SDS011;36711;51.972;21.204;2023-03-19T04:01:06;23.60;;;9.60;;
50745;SDS011;36711;51.972;21.204;2023-03-19T04:03:36;22.40;;;9.30;;
50745;SDS011;36711;51.972;21.204;2023-03-19T04:06:05;19.00;;;9.40;;
50745;SDS011;36711;51.972;21.204;2023-03-19T04:08:34;24.70;;;9.90;;
50745;SDS011;36711;51.972;21.204;2023-03-19T04:11:05;22.00;;;9.20;;
50745;SDS011;36711;51.972;21.204;2023-03-19T04:13:34;24.00;;;9.70;;
50745;SDS011;36711;51.972;21.204;2023-03-19T04:16:05;26.10;;;9.10;;
50745;SDS011;36711;51.972;21.204;2023-03-19T04:18:34;18.30;;;9.00;;
50745;SDS011;36711;51.972;21.204;2023-03-19T04:21:04;16.90;;;8.40;;
50745;SDS011;36711;51.972;21.204;2023-03-19T04:23:33;21.80;;;8.90;;
50745;SDS011;36711;51.972;21.204;2023-03-19T04:26:03;22.00;;;9.70;;
50745;SDS011;36711;51.972;21.204;2023-03-19T04:28:32;20.00;;;8.70;;
50745;SDS011;36711;51.972;21.204;2023-03-19T04:31:02;20.70;;;9.40;;
50745;SDS011;36711;51.972;21.204;2023-03-19T04:33:32;17.00;;;8.90;;
50745;SDS011;36711;51.972;21.204;2023-03-19T04:36:02;21.50;;;9.10;;
50745;SDS011;36711;51.972;21.204;2023-03-19T04:38:31;24.90;;;9.80;;
50745;SDS011;36711;51.972;21.204;2023-03-19T04:41:00;19.60;;;8.70;;
50745;SDS011;36711;51.972;21.204;2023-03-19T04:43:29;18.70;;;8.90;;
50745;SDS011;36711;51.972;21.204;2023-03-19T04:45:58;20.30;;;8.80;;
50745;SDS011;36711;51.972;21.204;2023-03-19T04:48:27;19.90;;;8.40;;
50745;SDS011;36711;51.972;21.204;2023-03-19T04:50:56;21.70;;;8.40;;
50745;SDS011;36711;51.972;21.204;2023-03-19T04:53:25;14.20;;;7.90;;
50745;SDS011;36711;51.972;21.204;2023-03-19T04:55:54;15.90;;;8.50;;
50745;SDS011;36711;51.972;21.204;2023-03-19T04:58:23;21.00;;;8.90;;
50745;SDS011;36711;51.972;21.204;2023-03-19T05:00:52;21.60;;;8.70;;
50745;SDS011;36711;51.972;21.204;2023-03-19T05:03:21;15.40;;;7.90;;
50745;SDS011;36711;51.972;21.204;2023-03-19T05:05:51;13.20;;;8.10;;
50745;SDS011;36711;51.972;21.204;2023-03-19T05:08:21;16.70;;;8.80;;
50745;SDS011;36711;51.972;21.204;2023-03-19T05:10:49;22.20;;;8.70;;
50745;SDS011;36711;51.972;21.204;2023-03-19T05:13:18;18.80;;;8.40;;
50745;SDS011;36711;51.972;21.204;2023-03-19T05:15:51;21.50;;;8.30;;
50745;SDS011;36711;51.972;21.204;2023-03-19T05:18:20;19.50;;;9.30;;
50745;SDS011;36711;51.972;21.204;2023-03-19T05:20:49;16.10;;;8.00;;
50745;SDS011;36711;51.972;21.204;2023-03-19T05:23:18;19.50;;;9.10;;
50745;SDS011;36711;51.972;21.204;2023-03-19T05:25:47;18.20;;;9.00;;
50745;SDS011;36711;51.972;21.204;2023-03-19T05:28:16;18.00;;;8.60;;
50745;SDS011;36711;51.972;21.204;2023-03-19T05:30:45;16.80;;;8.30;;
50745;SDS011;36711;51.972;21.204;2023-03-19T05:33:14;15.20;;;7.80;;
50745;SDS011;36711;51.972;21.204;2023-03-19T05:35:43;18.60;;;7.80;;
50745;SDS011;36711;51.972;21.204;2023-03-19T05:38:13;14.50;;;7.50;;
50745;SDS011;36711;51.972;21.204;2023-03-19T05:40:43;23.10;;;7.70;;
50745;SDS011;36711;51.972;21.204;2023-03-19T05:43:11;18.10;;;7.70;;
50745;SDS011;36711;51.972;21.204;2023-03-19T05:45:40;16.60;;;7.60;;
50745;SDS011;36711;51.972;21.204;2023-03-19T05:48:11;14.10;;;7.10;;
50745;SDS011;36711;51.972;21.204;2023-03-19T05:50:39;18.90;;;7.80;;
50745;SDS011;36711;51.972;21.204;2023-03-19T05:53:10;15.50;;;7.30;;
50745;SDS011;36711;51.972;21.204;2023-03-19T05:55:39;18.80;;;7.80;;
50745;SDS011;36711;51.972;21.204;2023-03-19T05:58:08;15.60;;;6.60;;
50745;SDS011;36711;51.972;21.204;2023-03-19T06:00:37;19.00;;;7.20;;
50745;SDS011;36711;51.972;21.204;2023-03-19T06:03:06;15.80;;;7.20;;
50745;SDS011;36711;51.972;21.204;2023-03-19T06:05:36;19.30;;;7.30;;
50745;SDS011;36711;51.972;21.204;2023-03-19T06:08:04;13.80;;;6.60;;
50745;SDS011;36711;51.972;21.204;2023-03-19T06:10:34;14.50;;;7.20;;
50745;SDS011;36711;51.972;21.204;2023-03-19T06:13:04;14.80;;;6.80;;
50745;SDS011;36711;51.972;21.204;2023-03-19T06:15:33;14.90;;;7.30;;
50745;SDS011;36711;51.972;21.204;2023-03-19T06:18:02;18.40;;;7.30;;
50745;SDS011;36711;51.972;21.204;2023-03-19T06:20:31;13.70;;;6.50;;
50745;SDS011;36711;51.972;21.204;2023-03-19T06:23:00;17.00;;;7.00;;
50745;SDS011;36711;51.972;21.204;2023-03-19T06:25:29;14.40;;;6.80;;
50745;SDS011;36711;51.972;21.204;2023-03-19T06:27:58;17.70;;;6.80;;
50745;SDS011;36711;51.972;21.204;2023-03-19T06:30:27;15.70;;;6.90;;
50745;SDS011;36711;51.972;21.204;2023-03-19T06:32:56;17.00;;;7.10;;
50745;SDS011;36711;51.972;21.204;2023-03-19T06:35:25;16.60;;;7.30;;
50745;SDS011;36711;51.972;21.204;2023-03-19T06:37:54;14.20;;;6.70;;
50745;SDS011;36711;51.972;21.204;2023-03-19T06:40:23;14.00;;;7.10;;
50745;SDS011;36711;51.972;21.204;2023-03-19T06:42:53;15.60;;;8.10;;
50745;SDS011;36711;51.972;21.204;2023-03-19T06:45:22;16.50;;;7.60;;
50745;SDS011;36711;51.972;21.204;2023-03-19T06:47:51;15.90;;;7.90;;
50745;SDS011;36711;51.972;21.204;2023-03-19T06:50:21;15.40;;;7.90;;
50745;SDS011;36711;51.972;21.204;2023-03-19T06:52:50;17.00;;;7.30;;
50745;SDS011;36711;51.972;21.204;2023-03-19T06:55:18;19.80;;;8.00;;
50745;SDS011;36711;51.972;21.204;2023-03-19T06:57:49;17.90;;;8.30;;
50745;SDS011;36711;51.972;21.204;2023-03-19T07:00:18;15.40;;;7.40;;
50745;SDS011;36711;51.972;21.204;2023-03-19T07:02:47;18.10;;;8.20;;
50745;SDS011;36711;51.972;21.204;2023-03-19T07:05:16;14.30;;;7.20;;
50745;SDS011;36711;51.972;21.204;2023-03-19T07:07:45;17.50;;;8.20;;
50745;SDS011;36711;51.972;21.204;2023-03-19T07:10:15;19.10;;;8.80;;
50745;SDS011;36711;51.972;21.204;2023-03-19T07:12:44;16.40;;;8.10;;
50745;SDS011;36711;51.972;21.204;2023-03-19T07:15:13;15.60;;;7.60;;
50745;SDS011;36711;51.972;21.204;2023-03-19T07:17:44;15.70;;;8.30;;
50745;SDS011;36711;51.972;21.204;2023-03-19T07:20:13;15.60;;;7.40;;
50745;SDS011;36711;51.972;21.204;2023-03-19T07:22:42;17.40;;;8.30;;
50745;SDS011;36711;51.972;21.204;2023-03-19T07:25:11;14.50;;;7.80;;
50745;SDS011;36711;51.972;21.204;2023-03-19T07:27:40;12.30;;;6.90;;
50745;SDS011;36711;51.972;21.204;2023-03-19T07:30:09;16.70;;;7.30;;
50745;SDS011;36711;51.972;21.204;2023-03-19T07:32:39;16.60;;;7.10;;
50745;SDS011;36711;51.972;21.204;2023-03-19T07:35:08;15.50;;;7.40;;
50745;SDS011;36711;51.972;21.204;2023-03-19T07:37:38;17.20;;;7.50;;
50745;SDS011;36711;51.972;21.204;2023-03-19T07:40:07;14.20;;;7.50;;
50745;SDS011;36711;51.972;21.204;2023-03-19T07:42:38;15.90;;;7.60;;
50745;SDS011;36711;51.972;21.204;2023-03-19T07:45:07;12.10;;;6.90;;
50745;SDS011;36711;51.972;21.204;2023-03-19T07:47:36;11.90;;;6.40;;
50745;SDS011;36711;51.972;21.204;2023-03-19T07:50:06;16.90;;;6.90;;
50745;SDS011;36711;51.972;21.204;2023-03-19T07:52:35;16.10;;;7.90;;
50745;SDS011;36711;51.972;21.204;2023-03-19T07:55:04;13.90;;;6.40;;
50745;SDS011;36711;51.972;21.204;2023-03-19T07:57:33;11.40;;;6.40;;
50745;SDS011;36711;51.972;21.204;2023-03-19T08:00:02;12.50;;;6.60;;
50745;SDS011;36711;51.972;21.204;2023-03-19T08:02:31;11.60;;;6.20;;
50745;SDS011;36711;51.972;21.204;2023-03-19T08:05:00;14.20;;;6.90;;
50745;SDS011;36711;51.972;21.204;2023-03-19T08:07:32;15.30;;;7.30;;
50745;SDS011;36711;51.972;21.204;2023-03-19T08:10:01;12.20;;;6.70;;
50745;SDS011;36711;51.972;21.204;2023-03-19T08:12:31;12.60;;;6.30;;
50745;SDS011;36711;51.972;21.204;2023-03-19T08:15:00;10.20;;;5.80;;
50745;SDS011;36711;51.972;21.204;2023-03-19T08:17:29;13.90;;;6.80;;
50745;SDS011;36711;51.972;21.204;2023-03-19T08:19:58;11.10;;;6.50;;
50745;SDS011;36711;51.972;21.204;2023-03-19T08:22:27;13.10;;;6.60;;
50745;SDS011;36711;51.972;21.204;2023-03-19T08:24:56;11.70;;;6.30;;
50745;SDS011;36711;51.972;21.204;2023-03-19T08:27:24;12.70;;;6.80;;
50745;SDS011;36711;51.972;21.204;2023-03-19T08:29:55;12.10;;;6.60;;
50745;SDS011;36711;51.972;21.204;2023-03-19T08:32:23;12.20;;;5.90;;
50745;SDS011;36711;51.972;21.204;2023-03-19T08:34:53;9.70;;;5.50;;
50745;SDS011;36711;51.972;21.204;2023-03-19T08:37:21;9.80;;;6.00;;
50745;SDS011;36711;51.972;21.204;2023-03-19T08:39:50;10.60;;;5.60;;
50745;SDS011;36711;51.972;21.204;2023-03-19T08:42:19;9.90;;;5.40;;
50745;SDS011;36711;51.972;21.204;2023-03-19T08:44:49;13.20;;;6.10;;
50745;SDS011;36711;51.972;21.204;2023-03-19T08:47:18;9.90;;;5.70;;
50745;SDS011;36711;51.972;21.204;2023-03-19T08:49:47;10.40;;;5.60;;
50745;SDS011;36711;51.972;21.204;2023-03-19T08:52:16;9.20;;;5.70;;
50745;SDS011;36711;51.972;21.204;2023-03-19T08:54:45;10.70;;;5.80;;
50745;SDS011;36711;51.972;21.204;2023-03-19T08:57:14;10.90;;;5.40;;
50745;SDS011;36711;51.972;21.204;2023-03-19T08:59:43;12.30;;;5.90;;
50745;SDS011;36711;51.972;21.204;2023-03-19T09:02:12;7.00;;;4.80;;
50745;SDS011;36711;51.972;21.204;2023-03-19T09:04:41;8.60;;;5.50;;
50745;SDS011;36711;51.972;21.204;2023-03-19T09:07:10;8.90;;;5.10;;
50745;SDS011;36711;51.972;21.204;2023-03-19T09:09:43;10.20;;;5.40;;
50745;SDS011;36711;51.972;21.204;2023-03-19T09:12:13;8.80;;;5.60;;
50745;SDS011;36711;51.972;21.204;2023-03-19T09:14:43;7.30;;;4.90;;
50745;SDS011;36711;51.972;21.204;2023-03-19T09:17:12;7.40;;;5.30;;
50745;SDS011;36711;51.972;21.204;2023-03-19T09:19:45;6.90;;;4.60;;
50745;SDS011;36711;51.972;21.204;2023-03-19T09:22:14;6.10;;;4.50;;
50745;SDS011;36711;51.972;21.204;2023-03-19T09:24:43;7.50;;;4.80;;
50745;SDS011;36711;51.972;21.204;2023-03-19T09:27:12;6.10;;;4.70;;
50745;SDS011;36711;51.972;21.204;2023-03-19T09:29:41;6.90;;;4.50;;
50745;SDS011;36711;51.972;21.204;2023-03-19T09:32:10;6.00;;;4.10;;
50745;SDS011;36711;51.972;21.204;2023-03-19T09:34:39;6.00;;;4.00;;
50745;SDS011;36711;51.972;21.204;2023-03-19T09:37:08;5.30;;;3.90;;
50745;SDS011;36711;51.972;21.204;2023-03-19T09:39:39;6.00;;;4.10;;
50745;SDS011;36711;51.972;21.204;2023-03-19T09:42:20;6.40;;;4.00;;
50745;SDS011;36711;51.972;21.204;2023-03-19T09:44:54;5.70;;;3.90;;
50745;SDS011;36711;51.972;21.204;2023-03-19T09:49:56;6.60;;;4.10;;
50745;SDS011;36711;51.972;21.204;2023-03-19T09:57:52;5.70;;;3.90;;
50745;SDS011;36711;51.972;21.204;2023-03-19T10:05:29;5.00;;;3.80;;
50745;SDS011;36711;51.972;21.204;2023-03-19T10:13:52;4.80;;;3.40;;
50745;SDS011;36711;51.972;21.204;2023-03-19T10:16:18;3.60;;;2.80;;
50745;SDS011;36711;51.972;21.204;2023-03-19T10:18:48;3.80;;;2.90;;
50745;SDS011;36711;51.972;21.204;2023-03-19T10:21:26;4.40;;;3.40;;
50745;SDS011;36711;51.972;21.204;2023-03-19T10:26:30;4.70;;;2.80;;
50745;SDS011;36711;51.972;21.204;2023-03-19T10:29:09;4.30;;;2.80;;
50745;SDS011;36711;51.972;21.204;2023-03-19T10:34:30;4.60;;;2.80;;
50745;SDS011;36711;51.972;21.204;2023-03-19T10:37:00;5.30;;;2.90;;
50745;SDS011;36711;51.972;21.204;2023-03-19T10:39:34;4.20;;;3.00;;
50745;SDS011;36711;51.972;21.204;2023-03-19T10:44:37;4.60;;;2.80;;
50745;SDS011;36711;51.972;21.204;2023-03-19T10:47:10;3.60;;;2.70;;
50745;SDS011;36711;51.972;21.204;2023-03-19T10:49:40;3.70;;;2.80;;
50745;SDS011;36711;51.972;21.204;2023-03-19T10:52:23;4.20;;;2.60;;
50745;SDS011;36711;51.972;21.204;2023-03-19T10:54:55;3.40;;;2.60;;
50745;SDS011;36711;51.972;21.204;2023-03-19T10:57:26;4.70;;;2.50;;
50745;SDS011;36711;51.972;21.204;2023-03-19T10:59:55;5.30;;;2.60;;
50745;SDS011;36711;51.972;21.204;2023-03-19T11:02:24;4.20;;;2.50;;
50745;SDS011;36711;51.972;21.204;2023-03-19T11:07:43;3.60;;;2.70;;
50745;SDS011;36711;51.972;21.204;2023-03-19T11:10:16;3.80;;;2.40;;
50745;SDS011;36711;51.972;21.204;2023-03-19T11:12:47;3.20;;;2.60;;
50745;SDS011;36711;51.972;21.204;2023-03-19T11:15:20;3.20;;;2.50;;
50745;SDS011;36711;51.972;21.204;2023-03-19T11:17:56;3.30;;;2.40;;
50745;SDS011;36711;51.972;21.204;2023-03-19T11:22:55;3.20;;;2.60;;
50745;SDS011;36711;51.972;21.204;2023-03-19T11:25:41;7.10;;;2.90;;
50745;SDS011;36711;51.972;21.204;2023-03-19T11:28:13;2.80;;;2.40;;
50745;SDS011;36711;51.972;21.204;2023-03-19T11:46:24;3.50;;;2.90;;
50745;SDS011;36711;51.972;21.204;2023-03-19T11:49:14;4.90;;;2.70;;
50745;SDS011;36711;51.972;21.204;2023-03-19T11:51:50;5.60;;;3.10;;
50745;SDS011;36711;51.972;21.204;2023-03-19T11:56:58;5.50;;;3.40;;
50745;SDS011;36711;51.972;21.204;2023-03-19T12:04:46;3.70;;;2.80;;
50745;SDS011;36711;51.972;21.204;2023-03-19T12:07:36;3.60;;;2.90;;
50745;SDS011;36711;51.972;21.204;2023-03-19T12:10:15;5.10;;;3.20;;
50745;SDS011;36711;51.972;21.204;2023-03-19T12:12:50;5.90;;;2.60;;
50745;SDS011;36711;51.972;21.204;2023-03-19T12:23:25;5.00;;;2.80;;
50745;SDS011;36711;51.972;21.204;2023-03-19T12:25:58;5.30;;;2.90;;
50745;SDS011;36711;51.972;21.204;2023-03-19T12:31:13;4.40;;;2.80;;
50745;SDS011;36711;51.972;21.204;2023-03-19T12:33:47;4.50;;;3.00;;
50745;SDS011;36711;51.972;21.204;2023-03-19T12:36:21;4.80;;;2.60;;
50745;SDS011;36711;51.972;21.204;2023-03-19T12:41:43;3.00;;;2.70;;
50745;SDS011;36711;51.972;21.204;2023-03-19T12:44:29;3.60;;;2.70;;
50745;SDS011;36711;51.972;21.204;2023-03-19T12:49:32;7.10;;;3.00;;
50745;SDS011;36711;51.972;21.204;2023-03-19T12:57:33;5.70;;;3.00;;
50745;SDS011;36711;51.972;21.204;2023-03-19T13:00:27;4.60;;;2.80;;
50745;SDS011;36711;51.972;21.204;2023-03-19T13:08:05;4.20;;;2.80;;
50745;SDS011;36711;51.972;21.204;2023-03-19T13:10:39;7.10;;;2.70;;
50745;SDS011;36711;51.972;21.204;2023-03-19T13:13:16;2.80;;;2.60;;
50745;SDS011;36711;51.972;21.204;2023-03-19T13:15:51;5.70;;;2.70;;
50745;SDS011;36711;51.972;21.204;2023-03-19T13:18:34;3.30;;;2.80;;
50745;SDS011;36711;51.972;21.204;2023-03-19T13:23:43;4.70;;;2.70;;
50745;SDS011;36711;51.972;21.204;2023-03-19T13:26:13;3.50;;;2.50;;
50745;SDS011;36711;51.972;21.204;2023-03-19T13:29:29;6.20;;;2.40;;
50745;SDS011;36711;51.972;21.204;2023-03-19T13:31:34;3.80;;;2.60;;
50745;SDS011;36711;51.972;21.204;2023-03-19T13:34:16;5.50;;;2.70;;
50745;SDS011;36711;51.972;21.204;2023-03-19T13:36:52;6.00;;;3.10;;
50745;SDS011;36711;51.972;21.204;2023-03-19T13:39:29;4.00;;;2.70;;
50745;SDS011;36711;51.972;21.204;2023-03-19T13:42:08;4.70;;;2.60;;
50745;SDS011;36711;51.972;21.204;2023-03-19T13:50:00;3.10;;;2.40;;
50745;SDS011;36711;51.972;21.204;2023-03-19T13:53:09;3.70;;;2.70;;
50745;SDS011;36711;51.972;21.204;2023-03-19T13:57:54;3.30;;;2.50;;
50745;SDS011;36711;51.972;21.204;2023-03-19T14:01:04;5.60;;;2.70;;
50745;SDS011;36711;51.972;21.204;2023-03-19T14:03:27;4.00;;;2.80;;
50745;SDS011;36711;51.972;21.204;2023-03-19T14:05:57;3.80;;;2.70;;
50745;SDS011;36711;51.972;21.204;2023-03-19T14:08:28;3.90;;;2.80;;
50745;SDS011;36711;51.972;21.204;2023-03-19T14:10:58;3.00;;;2.60;;
50745;SDS011;36711;51.972;21.204;2023-03-19T14:13:32;2.80;;;2.30;;
50745;SDS011;36711;51.972;21.204;2023-03-19T14:16:05;3.00;;;2.50;;
50745;SDS011;36711;51.972;21.204;2023-03-19T14:18:36;4.80;;;2.90;;
50745;SDS011;36711;51.972;21.204;2023-03-19T14:21:12;6.90;;;2.70;;
50745;SDS011;36711;51.972;21.204;2023-03-19T14:23:51;3.80;;;2.30;;
50745;SDS011;36711;51.972;21.204;2023-03-19T14:26:22;3.20;;;2.40;;
50745;SDS011;36711;51.972;21.204;2023-03-19T14:31:28;5.40;;;2.60;;
50745;SDS011;36711;51.972;21.204;2023-03-19T14:34:06;2.90;;;2.50;;
50745;SDS011;36711;51.972;21.204;2023-03-19T14:39:23;3.40;;;2.40;;
50745;SDS011;36711;51.972;21.204;2023-03-19T14:42:37;3.60;;;2.50;;
50745;SDS011;36711;51.972;21.204;2023-03-19T14:44:55;4.00;;;2.60;;
50745;SDS011;36711;51.972;21.204;2023-03-19T14:50:11;4.00;;;2.70;;
50745;SDS011;36711;51.972;21.204;2023-03-19T14:52:55;3.40;;;2.60;;
50745;SDS011;36711;51.972;21.204;2023-03-19T14:55:33;5.10;;;2.70;;
50745;SDS011;36711;51.972;21.204;2023-03-19T14:58:03;4.40;;;2.70;;
50745;SDS011;36711;51.972;21.204;2023-03-19T15:00:45;4.00;;;2.50;;
50745;SDS011;36711;51.972;21.204;2023-03-19T15:03:19;2.90;;;2.40;;
50745;SDS011;36711;51.972;21.204;2023-03-19T15:05:49;3.90;;;2.70;;
50745;SDS011;36711;51.972;21.204;2023-03-19T15:08:21;5.10;;;2.70;;
50745;SDS011;36711;51.972;21.204;2023-03-19T15:18:34;3.30;;;2.30;;
50745;SDS011;36711;51.972;21.204;2023-03-19T15:21:03;4.10;;;2.60;;
50745;SDS011;36711;51.972;21.204;2023-03-19T15:23:32;3.80;;;2.70;;
50745;SDS011;36711;51.972;21.204;2023-03-19T15:26:02;3.60;;;2.50;;
50745;SDS011;36711;51.972;21.204;2023-03-19T15:28:32;5.90;;;2.70;;
50745;SDS011;36711;51.972;21.204;2023-03-19T15:31:05;4.30;;;2.50;;
50745;SDS011;36711;51.972;21.204;2023-03-19T15:33:54;5.30;;;2.50;;
50745;SDS011;36711;51.972;21.204;2023-03-19T15:36:25;21.50;;;3.20;;
50745;SDS011;36711;51.972;21.204;2023-03-19T15:39:01;30.60;;;3.50;;
50745;SDS011;36711;51.972;21.204;2023-03-19T15:41:32;8.70;;;3.00;;
50745;SDS011;36711;51.972;21.204;2023-03-19T15:44:03;7.20;;;2.80;;
50745;SDS011;36711;51.972;21.204;2023-03-19T15:46:35;8.00;;;2.70;;
50745;SDS011;36711;51.972;21.204;2023-03-19T15:49:08;5.80;;;2.60;;
50745;SDS011;36711;51.972;21.204;2023-03-19T15:51:39;4.40;;;2.40;;
50745;SDS011;36711;51.972;21.204;2023-03-19T15:54:08;4.30;;;2.40;;
50745;SDS011;36711;51.972;21.204;2023-03-19T15:56:37;7.20;;;2.50;;
50745;SDS011;36711;51.972;21.204;2023-03-19T15:59:06;6.50;;;2.70;;
50745;SDS011;36711;51.972;21.204;2023-03-19T16:01:35;3.70;;;2.60;;
50745;SDS011;36711;51.972;21.204;2023-03-19T16:04:06;7.10;;;2.60;;
50745;SDS011;36711;51.972;21.204;2023-03-19T16:06:36;6.50;;;2.70;;
50745;SDS011;36711;51.972;21.204;2023-03-19T16:11:42;6.40;;;2.70;;
50745;SDS011;36711;51.972;21.204;2023-03-19T16:14:25;6.70;;;2.80;;
50745;SDS011;36711;51.972;21.204;2023-03-19T16:16:58;10.50;;;2.70;;
50745;SDS011;36711;51.972;21.204;2023-03-19T16:19:35;13.40;;;2.90;;
50745;SDS011;36711;51.972;21.204;2023-03-19T16:22:14;6.30;;;2.50;;
50745;SDS011;36711;51.972;21.204;2023-03-19T16:24:44;9.40;;;3.00;;
50745;SDS011;36711;51.972;21.204;2023-03-19T16:27:15;13.00;;;2.90;;
50745;SDS011;36711;51.972;21.204;2023-03-19T16:29:45;5.30;;;2.70;;
50745;SDS011;36711;51.972;21.204;2023-03-19T16:32:16;9.40;;;2.60;;
50745;SDS011;36711;51.972;21.204;2023-03-19T16:34:53;5.70;;;2.80;;
50745;SDS011;36711;51.972;21.204;2023-03-19T16:39:55;11.90;;;4.00;;
50745;SDS011;36711;51.972;21.204;2023-03-19T16:45:16;6.10;;;3.20;;
50745;SDS011;36711;51.972;21.204;2023-03-19T16:47:46;5.50;;;3.00;;
50745;SDS011;36711;51.972;21.204;2023-03-19T16:50:15;7.10;;;3.20;;
50745;SDS011;36711;51.972;21.204;2023-03-19T16:52:45;5.10;;;3.20;;